createdAt,value
2022-08-07T00:01:44.609Z,70.37
2022-08-07T00:04:15.817Z,70.54
2022-08-07T00:06:51.803Z,70.53
2022-08-07T00:09:22.592Z,70.60
2022-08-07T00:11:55.787Z,70.69
2022-08-07T00:14:31.383Z,70.76
2022-08-07T00:17:02.586Z,71.04
2022-08-07T00:19:34.047Z,70.99
2022-08-07T00:22:03.307Z,70.90
2022-08-07T00:24:31.940Z,71.01
2022-08-07T00:27:07.170Z,71.15
2022-08-07T00:29:37.099Z,71.36
2022-08-07T00:32:06.838Z,71.46
2022-08-07T00:34:35.381Z,71.72
2022-08-07T00:37:05.049Z,71.82
2022-08-07T00:39:36.559Z,71.91
2022-08-07T00:42:13.533Z,71.88
2022-08-07T00:44:42.525Z,71.98
2022-08-07T00:47:15.674Z,72.16
2022-08-07T00:50:21.453Z,72.29
2022-08-07T00:52:47.424Z,72.54
2022-08-07T00:55:17.410Z,72.55
2022-08-07T00:57:56.032Z,72.48
2022-08-07T01:00:25.228Z,72.70
2022-08-07T01:02:54.750Z,72.85
2022-08-07T01:05:24.649Z,72.70
2022-08-07T01:07:53.442Z,72.73
2022-08-07T01:10:23.965Z,72.64
2022-08-07T01:12:54.812Z,72.54
2022-08-07T01:16:00.672Z,72.45
2022-08-07T01:18:16.650Z,72.47
2022-08-07T01:20:59.647Z,72.52
2022-08-07T01:23:38.456Z,72.47
2022-08-07T01:26:14.142Z,72.49
2022-08-07T01:28:51.142Z,72.37
2022-08-07T01:31:41.762Z,72.35
2022-08-07T01:34:14.710Z,72.07
2022-08-07T01:36:52.814Z,71.92
2022-08-07T01:39:41.116Z,71.88
2022-08-07T01:42:56.988Z,72.08
2022-08-07T01:45:37.133Z,72.03
2022-08-07T01:48:29.868Z,72.04
2022-08-07T01:51:24.588Z,71.99
2022-08-07T01:54:09.571Z,72.08
2022-08-07T01:56:53.567Z,72.09
2022-08-07T01:59:36.334Z,72.32
2022-08-07T02:02:32.462Z,72.29
2022-08-07T02:05:16.049Z,72.31
2022-08-07T02:08:04.909Z,72.14
2022-08-07T02:10:42.319Z,72.17
2022-08-07T02:13:14.464Z,72.32
2022-08-07T02:15:53.111Z,72.31
2022-08-07T02:18:25.971Z,72.33
2022-08-07T02:21:00.697Z,72.25
2022-08-07T02:23:40.441Z,72.26
2022-08-07T02:26:31.267Z,72.26
2022-08-07T02:28:58.703Z,72.22
2022-08-07T02:31:33.023Z,72.33
2022-08-07T02:34:11.089Z,72.31
2022-08-07T02:36:49.030Z,72.23
2022-08-07T02:39:43.477Z,72.30
2022-08-07T02:42:10.111Z,72.37
2022-08-07T02:44:48.722Z,72.35
2022-08-07T02:47:45.225Z,72.48
2022-08-07T02:50:18.770Z,72.67
2022-08-07T02:53:03.294Z,72.59
2022-08-07T02:56:03.128Z,72.67
2022-08-07T02:58:27.249Z,72.56
2022-08-07T03:00:58.425Z,72.59
2022-08-07T03:03:50.083Z,72.68
2022-08-07T03:06:25.994Z,72.61
2022-08-07T03:09:04.917Z,72.78
2022-08-07T03:11:38.534Z,72.94
2022-08-07T03:14:10.891Z,73.07
2022-08-07T03:16:40.630Z,72.83
2022-08-07T03:19:11.645Z,72.80
2022-08-07T03:21:45.594Z,72.99
2022-08-07T03:24:27.036Z,72.86
2022-08-07T03:27:02.275Z,72.87
2022-08-07T03:29:46.025Z,72.80
2022-08-07T03:32:39.687Z,72.78
2022-08-07T03:35:26.158Z,72.96
2022-08-07T03:38:02.146Z,73.13
2022-08-07T03:40:36.491Z,73.42
2022-08-07T03:43:13.679Z,73.37
2022-08-07T03:45:47.648Z,73.37
2022-08-07T03:48:19.467Z,72.87
2022-08-07T03:50:56.001Z,72.80
2022-08-07T03:54:06.000Z,72.93
2022-08-07T03:56:33.011Z,72.76
2022-08-07T03:59:09.365Z,72.74
2022-08-07T04:01:46.814Z,72.60
2022-08-07T04:04:18.618Z,72.69
2022-08-07T04:06:52.312Z,72.50
2022-08-07T04:09:24.786Z,72.45
2022-08-07T04:12:23.771Z,72.47
2022-08-07T04:14:49.193Z,72.59
2022-08-07T04:17:20.937Z,72.77
2022-08-07T04:19:54.271Z,72.63
2022-08-07T04:22:29.283Z,72.47
2022-08-07T04:25:02.037Z,72.23
2022-08-07T04:27:35.563Z,72.23
2022-08-07T04:30:20.994Z,72.10
2022-08-07T04:32:58.537Z,71.90
2022-08-07T04:35:35.476Z,71.89
2022-08-07T04:38:11.457Z,71.55
2022-08-07T04:40:52.218Z,71.62
2022-08-07T04:44:12.690Z,71.34
2022-08-07T04:46:59.717Z,71.12
2022-08-07T04:49:37.669Z,71.13
2022-08-07T04:53:16.518Z,70.97
2022-08-07T04:58:12.788Z,71.02
2022-08-07T05:00:12.243Z,71.01
2022-08-07T05:02:26.486Z,70.86
2022-08-07T05:04:55.167Z,70.90
2022-08-07T05:07:48.241Z,70.64
2022-08-07T05:10:29.504Z,70.49
2022-08-07T05:14:44.334Z,70.25
2022-08-07T05:15:54.014Z,70.30
2022-08-07T05:18:30.174Z,70.35
2022-08-07T05:21:04.905Z,70.24
2022-08-07T05:23:43.316Z,70.37
2022-08-07T05:26:24.097Z,70.08
2022-08-07T05:29:04.371Z,70.24
2022-08-07T05:31:38.792Z,69.99
2022-08-07T05:34:15.747Z,69.67
2022-08-07T05:36:53.657Z,69.80
2022-08-07T05:40:13.513Z,69.82
2022-08-07T05:42:15.939Z,69.57
2022-08-07T05:45:14.650Z,69.74
2022-08-07T05:48:02.505Z,69.78
2022-08-07T05:50:44.556Z,69.62
2022-08-07T05:54:13.218Z,69.51
2022-08-07T05:56:05.909Z,69.28
2022-08-07T05:58:40.893Z,69.38
2022-08-07T06:01:19.720Z,69.21
2022-08-07T06:03:58.858Z,69.34
2022-08-07T06:06:35.215Z,69.19
2022-08-07T06:09:05.716Z,69.04
2022-08-07T06:11:38.524Z,68.63
2022-08-07T06:14:12.750Z,68.52
2022-08-07T06:16:56.006Z,68.47
2022-08-07T06:19:47.937Z,68.42
2022-08-07T06:22:23.753Z,68.03
2022-08-07T06:25:03.011Z,67.94
2022-08-07T06:27:44.427Z,68.14
2022-08-07T06:30:24.113Z,67.98
2022-08-07T06:33:01.575Z,67.65
2022-08-07T06:35:45.260Z,67.60
2022-08-07T06:38:20.269Z,67.54
2022-08-07T06:40:56.408Z,67.19
2022-08-07T06:43:39.472Z,67.07
2022-08-07T06:46:15.880Z,66.47
2022-08-07T06:49:04.413Z,66.63
2022-08-07T06:51:49.348Z,66.90
2022-08-07T06:55:30.203Z,66.75
2022-08-07T06:57:11.397Z,66.28
2022-08-07T07:00:14.212Z,66.11
2022-08-07T07:02:54.529Z,66.06
2022-08-07T07:06:02.440Z,65.69
2022-08-07T07:08:18.872Z,65.57
2022-08-07T07:10:56.921Z,65.96
2022-08-07T07:13:57.866Z,65.44
2022-08-07T07:16:38.927Z,65.07
2022-08-07T07:19:56.309Z,64.96
2022-08-07T07:22:33.988Z,64.12
2022-08-07T07:24:57.008Z,63.72
2022-08-07T07:28:02.178Z,62.89
2022-08-07T07:30:38.721Z,61.78
2022-08-07T07:33:12.770Z,61.90
2022-08-07T07:35:54.626Z,61.82
2022-08-07T07:38:34.860Z,61.74
2022-08-07T07:41:09.368Z,61.26
2022-08-07T07:44:14.670Z,61.68
2022-08-07T07:46:53.912Z,61.37
2022-08-07T07:50:35.391Z,60.71
2022-08-07T07:52:17.408Z,61.04
2022-08-07T07:54:51.370Z,60.96
2022-08-07T07:57:50.368Z,61.32
2022-08-07T08:00:21.032Z,61.27
2022-08-07T08:03:08.187Z,61.11
2022-08-07T08:05:50.965Z,61.08
2022-08-07T08:08:36.958Z,61.48
2022-08-07T08:11:16.468Z,61.00
2022-08-07T08:13:58.206Z,61.10
2022-08-07T08:16:38.154Z,61.23
2022-08-07T08:20:15.600Z,61.08
2022-08-07T08:22:18.021Z,60.72
2022-08-07T08:25:24.636Z,60.75
2022-08-07T08:28:03.698Z,60.50
2022-08-07T08:30:37.515Z,59.77
2022-08-07T08:33:19.120Z,60.12
2022-08-07T08:35:56.101Z,60.22
2022-08-07T08:38:30.054Z,59.48
2022-08-07T08:41:19.382Z,59.61
2022-08-07T08:44:08.853Z,59.14
2022-08-07T08:46:55.261Z,59.10
2022-08-07T08:50:05.374Z,58.74
2022-08-07T08:52:40.984Z,58.85
2022-08-07T08:55:55.458Z,58.56
2022-08-07T08:58:42.128Z,58.93
2022-08-07T09:01:43.849Z,58.89
2022-08-07T09:04:35.617Z,59.05
2022-08-07T09:07:16.941Z,58.50
2022-08-07T09:10:24.085Z,58.98
2022-08-07T09:13:09.666Z,58.48
2022-08-07T09:16:22.697Z,58.44
2022-08-07T09:19:00.700Z,57.82
2022-08-07T09:21:34.348Z,58.14
2022-08-07T09:24:55.992Z,57.62
2022-08-07T09:28:00.563Z,56.49
2022-08-07T09:30:46.342Z,56.34
2022-08-07T09:33:52.972Z,56.30
2022-08-07T09:36:35.622Z,56.61
2022-08-07T09:39:53.589Z,56.01
2022-08-07T09:42:22.954Z,55.70
2022-08-07T09:46:28.737Z,55.16
2022-08-07T09:48:15.182Z,54.98
2022-08-07T09:51:01.737Z,55.06
2022-08-07T09:53:41.288Z,55.00
2022-08-07T09:56:37.547Z,54.63
2022-08-07T09:59:35.867Z,54.42
2022-08-07T10:02:29.594Z,52.91
2022-08-07T10:05:58.067Z,53.47
2022-08-07T10:08:21.616Z,52.04
2022-08-07T10:11:17.287Z,51.87
2022-08-07T10:14:23.127Z,52.16
2022-08-07T10:17:17.991Z,52.32
2022-08-07T10:20:12.911Z,51.95
2022-08-07T10:23:12.231Z,52.42
2022-08-07T10:25:56.172Z,51.42
2022-08-07T10:28:58.210Z,52.04
2022-08-07T10:31:38.718Z,51.98
2022-08-07T10:34:37.671Z,52.07
2022-08-07T10:37:15.395Z,52.66
2022-08-07T10:40:12.644Z,52.98
2022-08-07T10:43:13.155Z,53.43
2022-08-07T10:45:58.245Z,54.01
2022-08-07T10:48:51.945Z,53.78
2022-08-07T10:51:57.344Z,52.86
2022-08-07T10:54:36.168Z,52.09
2022-08-07T10:57:34.134Z,51.45
2022-08-07T11:00:10.055Z,50.73
2022-08-07T11:03:12.628Z,49.46
2022-08-07T11:06:01.637Z,49.00
2022-08-07T11:08:41.176Z,49.29
2022-08-07T11:11:35.694Z,48.87
2022-08-07T11:14:45.761Z,49.01
2022-08-07T11:17:13.716Z,49.31
2022-08-07T11:20:03.884Z,49.04
2022-08-07T11:22:46.374Z,48.26
2022-08-07T11:25:30.849Z,46.14
2022-08-07T11:28:15.316Z,45.38
2022-08-07T11:31:11.439Z,46.88
2022-08-07T11:34:04.286Z,47.40
2022-08-07T11:36:41.267Z,48.07
2022-08-07T11:39:20.439Z,47.78
2022-08-07T11:42:03.204Z,46.85
2022-08-07T11:44:52.392Z,46.06
2022-08-07T11:47:59.364Z,45.44
2022-08-07T11:50:57.145Z,44.63
2022-08-07T11:54:09.706Z,44.81
2022-08-07T11:56:57.274Z,44.73
2022-08-07T12:00:10.852Z,44.19
2022-08-07T12:03:02.769Z,44.61
2022-08-07T12:08:42.516Z,44.80
2022-08-07T12:11:32.379Z,44.69
2022-08-07T12:14:11.729Z,44.59
2022-08-07T12:16:55.059Z,43.83
2022-08-07T12:19:56.521Z,43.92
2022-08-07T12:22:58.281Z,41.81
2022-08-07T12:26:03.422Z,43.28
2022-08-07T12:29:06.404Z,43.16
2022-08-07T12:32:19.838Z,42.91
2022-08-07T12:34:55.597Z,43.33
2022-08-07T12:37:28.391Z,43.62
2022-08-07T12:43:58.789Z,43.14
2022-08-07T12:46:15.879Z,42.24
2022-08-07T12:49:00.397Z,42.55
2022-08-07T12:52:13.652Z,42.23
2022-08-07T12:55:05.306Z,41.35
2022-08-07T12:58:01.203Z,41.25
2022-08-07T13:01:05.970Z,41.27
2022-08-07T13:04:02.167Z,40.92
2022-08-07T13:07:02.010Z,41.28
2022-08-07T13:10:38.086Z,40.77
2022-08-07T13:13:57.615Z,39.93
2022-08-07T13:16:54.444Z,40.65
2022-08-07T13:19:51.566Z,40.48
2022-08-07T13:22:42.173Z,39.56
2022-08-07T13:25:54.188Z,39.40
2022-08-07T13:28:35.993Z,40.15
2022-08-07T13:31:13.742Z,40.38
2022-08-07T13:34:34.475Z,40.16
2022-08-07T13:36:49.360Z,39.75
2022-08-07T13:40:33.117Z,38.83
2022-08-07T13:42:26.053Z,39.34
2022-08-07T13:46:07.022Z,39.14
2022-08-07T13:48:06.221Z,38.95
2022-08-07T13:50:44.854Z,38.83
2022-08-07T13:53:59.499Z,38.84
2022-08-07T13:56:36.170Z,38.97
2022-08-07T13:59:19.002Z,39.27
2022-08-07T14:02:10.458Z,38.91
2022-08-07T14:04:49.581Z,38.41
2022-08-07T14:07:23.042Z,38.61
2022-08-07T14:10:16.311Z,38.81
2022-08-07T14:12:57.081Z,38.79
2022-08-07T14:15:34.893Z,38.70
2022-08-07T14:18:23.468Z,38.74
2022-08-07T14:21:08.476Z,38.97
2022-08-07T14:24:01.273Z,38.64
2022-08-07T14:26:50.351Z,38.60
2022-08-07T14:30:05.164Z,37.74
2022-08-07T14:32:15.552Z,37.55
2022-08-07T14:34:47.408Z,38.14
2022-08-07T14:37:36.005Z,37.82
2022-08-07T14:40:26.604Z,37.71
2022-08-07T14:43:55.240Z,38.08
2022-08-07T14:45:57.617Z,38.59
2022-08-07T14:48:35.006Z,38.22
2022-08-07T14:51:15.821Z,38.70
2022-08-07T14:54:05.740Z,39.04
2022-08-07T14:56:41.307Z,38.49
2022-08-07T15:02:33.001Z,38.66
2022-08-07T15:05:01.696Z,38.42
2022-08-07T15:07:50.871Z,38.41
2022-08-07T15:10:26.274Z,38.27
2022-08-07T15:13:06.673Z,38.13
2022-08-07T15:15:42.975Z,38.69
2022-08-07T15:18:33.905Z,38.62
2022-08-07T15:21:43.920Z,38.28
2022-08-07T15:27:04.349Z,38.28
2022-08-07T15:30:10.283Z,38.61
2022-08-07T15:32:39.990Z,38.13
2022-08-07T15:36:02.062Z,38.55
2022-08-07T15:38:31.169Z,38.30
2022-08-07T15:41:24.384Z,38.27
2022-08-07T15:44:03.442Z,38.02
2022-08-07T15:46:38.429Z,37.79
2022-08-07T15:49:14.655Z,37.08
2022-08-07T15:54:40.619Z,37.54
2022-08-07T15:57:39.365Z,37.96
2022-08-07T16:00:09.402Z,38.14
2022-08-07T16:02:59.271Z,37.87
2022-08-07T16:05:31.150Z,38.07
2022-08-07T16:08:30.579Z,38.48
2022-08-07T16:11:26.371Z,37.91
2022-08-07T16:14:03.110Z,38.19
2022-08-07T16:16:51.487Z,37.97
2022-08-07T16:19:58.920Z,37.64
2022-08-07T16:22:55.328Z,38.06
2022-08-07T16:25:52.227Z,37.91
2022-08-07T16:29:18.280Z,38.03
2022-08-07T16:32:05.203Z,38.25
2022-08-07T16:34:48.120Z,37.97
2022-08-07T16:38:06.869Z,37.84
2022-08-07T16:40:32.148Z,38.45
2022-08-07T16:44:04.343Z,38.45
2022-08-07T16:47:07.779Z,38.71
2022-08-07T16:50:29.091Z,38.97
2022-08-07T16:52:55.869Z,39.11
2022-08-07T16:55:47.070Z,39.36
2022-08-07T16:58:33.650Z,39.27
2022-08-07T17:01:29.224Z,39.30
2022-08-07T17:04:12.590Z,39.45
2022-08-07T17:07:03.257Z,39.37
2022-08-07T17:10:05.316Z,39.96
2022-08-07T17:13:03.579Z,40.23
2022-08-07T17:16:09.191Z,40.17
2022-08-07T17:18:52.418Z,40.40
2022-08-07T17:21:27.351Z,40.62
2022-08-07T17:24:59.423Z,40.89
2022-08-07T17:27:36.467Z,41.09
2022-08-07T17:31:16.353Z,41.03
2022-08-07T17:34:15.212Z,41.05
2022-08-07T17:36:59.745Z,40.80
2022-08-07T17:40:03.101Z,40.89
2022-08-07T17:42:59.116Z,41.64
2022-08-07T17:45:31.815Z,41.86
2022-08-07T17:48:30.710Z,41.90
2022-08-07T17:51:16.372Z,42.25
2022-08-07T17:54:14.508Z,42.43
2022-08-07T17:57:56.678Z,42.74
2022-08-07T18:00:33.375Z,43.30
2022-08-07T18:04:03.753Z,43.25
2022-08-07T18:06:36.809Z,43.75
2022-08-07T18:09:08.666Z,43.60
2022-08-07T18:12:17.690Z,43.81
2022-08-07T18:14:45.081Z,43.81
2022-08-07T18:18:47.225Z,43.96
2022-08-07T18:21:10.002Z,43.94
2022-08-07T18:24:33.164Z,44.34
2022-08-07T18:27:08.450Z,44.34
2022-08-07T18:30:04.227Z,44.64
2022-08-07T18:32:55.177Z,44.37
2022-08-07T18:36:06.000Z,44.61
2022-08-07T18:38:57.834Z,44.61
2022-08-07T18:41:46.326Z,45.05
2022-08-07T18:44:20.648Z,44.90
2022-08-07T18:47:06.061Z,44.88
2022-08-07T18:50:19.686Z,45.20
2022-08-07T18:53:04.817Z,44.96
2022-08-07T18:55:57.105Z,45.14
2022-08-07T18:58:33.135Z,44.97
2022-08-07T19:01:06.018Z,45.45
2022-08-07T19:03:41.924Z,45.30
2022-08-07T19:06:21.635Z,45.75
2022-08-07T19:09:55.695Z,45.74
2022-08-07T19:12:20.333Z,46.03
2022-08-07T19:16:05.586Z,45.60
2022-08-07T19:18:35.215Z,45.98
2022-08-07T19:21:44.263Z,45.90
2022-08-07T19:24:30.516Z,45.77
2022-08-07T19:28:57.179Z,46.04
2022-08-07T19:31:06.042Z,46.32
2022-08-07T19:32:59.236Z,46.11
2022-08-07T19:35:33.568Z,45.99
2022-08-07T19:38:16.872Z,45.36
2022-08-07T19:40:50.745Z,45.46
2022-08-07T19:43:43.924Z,45.64
2022-08-07T19:46:26.343Z,45.29
2022-08-07T19:49:05.771Z,45.05
2022-08-07T19:51:53.054Z,45.37
2022-08-07T19:54:34.121Z,45.22
2022-08-07T19:58:04.126Z,44.72
2022-08-07T20:00:29.632Z,44.87
2022-08-07T20:03:35.592Z,44.61
2022-08-07T20:06:02.190Z,44.78
2022-08-07T20:08:36.584Z,44.87
2022-08-07T20:11:14.962Z,44.36
2022-08-07T20:13:50.184Z,44.18
2022-08-07T20:16:32.204Z,44.00
2022-08-07T20:19:11.090Z,44.26
2022-08-07T20:21:47.495Z,44.17
2022-08-07T20:24:23.688Z,44.38
2022-08-07T20:27:02.515Z,44.13
2022-08-07T20:29:57.489Z,44.30
2022-08-07T20:32:39.718Z,44.52
2022-08-07T20:35:17.816Z,44.81
2022-08-07T20:37:58.804Z,44.78
2022-08-07T20:40:34.360Z,44.87
2022-08-07T20:43:09.672Z,44.80
2022-08-07T20:46:27.590Z,44.63
2022-08-07T20:48:37.575Z,44.76
2022-08-07T20:51:09.827Z,45.02
2022-08-07T20:54:02.909Z,45.16
2022-08-07T20:56:32.250Z,45.17
2022-08-07T20:59:06.420Z,45.40
2022-08-07T21:01:58.527Z,45.35
2022-08-07T21:04:31.447Z,45.33
2022-08-07T21:07:03.990Z,45.34
2022-08-07T21:09:53.018Z,45.65
2022-08-07T21:12:31.088Z,46.05
2022-08-07T21:15:06.430Z,46.01
2022-08-07T21:18:20.466Z,45.85
2022-08-07T21:20:33.128Z,45.95
2022-08-07T21:23:09.006Z,45.76
2022-08-07T21:25:52.260Z,45.91
2022-08-07T21:29:02.427Z,45.75
2022-08-07T21:32:10.929Z,46.16
2022-08-07T21:34:51.919Z,46.25
2022-08-07T21:37:57.939Z,46.63
2022-08-07T21:40:45.860Z,46.50
2022-08-07T21:43:23.044Z,46.52
2022-08-07T21:46:08.650Z,46.85
2022-08-07T21:48:56.760Z,47.03
2022-08-07T21:51:28.281Z,46.70
2022-08-07T21:54:18.837Z,47.25
2022-08-07T21:57:08.762Z,47.35
2022-08-07T22:00:05.009Z,47.33
2022-08-07T22:02:55.276Z,47.73
2022-08-07T22:05:46.278Z,47.87
2022-08-07T22:08:20.932Z,47.71
2022-08-07T22:11:00.202Z,47.82
2022-08-07T22:13:52.442Z,47.76
2022-08-07T22:16:41.681Z,47.91
2022-08-07T22:19:31.646Z,48.09
2022-08-07T22:22:28.852Z,48.23
2022-08-07T22:25:11.141Z,48.56
2022-08-07T22:28:29.338Z,48.75
2022-08-07T22:31:59.087Z,48.97
2022-08-07T22:34:12.909Z,49.16
2022-08-07T22:36:56.487Z,49.13
2022-08-07T22:39:56.234Z,49.21
2022-08-07T22:42:31.393Z,49.65
2022-08-07T22:45:10.910Z,49.42
2022-08-07T22:48:13.618Z,49.86
2022-08-07T22:51:23.058Z,49.90
2022-08-07T22:54:22.241Z,50.01
2022-08-07T22:57:16.823Z,50.15
2022-08-07T22:59:49.991Z,50.32
2022-08-07T23:02:37.869Z,50.56
2022-08-07T23:06:15.736Z,50.70
2022-08-07T23:08:47.909Z,50.92
2022-08-07T23:11:59.038Z,51.03
2022-08-07T23:14:47.536Z,51.31
2022-08-07T23:17:41.817Z,51.61
2022-08-07T23:20:54.799Z,51.73
2022-08-07T23:24:05.740Z,51.59
2022-08-07T23:26:42.141Z,51.87
2022-08-07T23:30:38.187Z,52.26
2022-08-07T23:34:33.303Z,52.35
2022-08-07T23:36:34.410Z,52.65
2022-08-07T23:39:09.511Z,52.49
2022-08-07T23:42:08.559Z,52.68
2022-08-07T23:44:46.766Z,52.82
2022-08-07T23:47:42.307Z,52.66
2022-08-07T23:50:33.806Z,52.77
2022-08-07T23:53:51.899Z,52.84
2022-08-07T23:56:35.051Z,53.14
